createdAt,value
2022-10-22T00:00:36.926Z,74.50
2022-10-22T00:03:03.554Z,74.65
2022-10-22T00:05:10.477Z,74.84
2022-10-22T00:07:17.960Z,75.27
2022-10-22T00:09:24.615Z,74.95
2022-10-22T00:11:30.821Z,75.48
2022-10-22T00:13:37.334Z,75.43
2022-10-22T00:15:43.858Z,75.51
2022-10-22T00:17:50.858Z,75.42
2022-10-22T00:19:57.297Z,75.45
2022-10-22T00:22:06.734Z,75.83
2022-10-22T00:24:12.913Z,75.67
2022-10-22T00:26:20.093Z,75.99
2022-10-22T00:28:29.316Z,76.07
2022-10-22T00:30:35.742Z,75.84
2022-10-22T00:32:42.019Z,76.23
2022-10-22T00:34:48.386Z,76.30
2022-10-22T00:36:54.745Z,76.25
2022-10-22T00:39:00.986Z,76.40
2022-10-22T00:41:07.573Z,76.22
2022-10-22T00:43:15.427Z,76.65
2022-10-22T00:45:27.786Z,76.68
2022-10-22T00:47:40.144Z,76.36
2022-10-22T00:49:48.224Z,76.61
2022-10-22T00:51:54.626Z,76.86
2022-10-22T00:54:06.145Z,76.95
2022-10-22T00:56:12.860Z,76.62
2022-10-22T00:58:22.302Z,76.75
2022-10-22T01:00:32.043Z,76.76
2022-10-22T01:02:40.404Z,76.55
2022-10-22T01:04:47.415Z,77.00
2022-10-22T01:06:54.418Z,76.69
2022-10-22T01:09:06.894Z,77.16
2022-10-22T01:11:38.758Z,76.80
2022-10-22T01:14:14.477Z,77.23
2022-10-22T01:16:39.141Z,77.09
2022-10-22T01:18:51.582Z,77.37
2022-10-22T01:21:02.282Z,77.36
2022-10-22T01:23:42.710Z,77.48
2022-10-22T01:26:00.723Z,77.75
2022-10-22T01:28:24.669Z,77.55
2022-10-22T01:30:32.205Z,77.56
2022-10-22T01:33:03.749Z,77.69
2022-10-22T01:35:13.730Z,77.97
2022-10-22T01:37:23.150Z,78.04
2022-10-22T01:39:32.201Z,78.11
2022-10-22T01:41:40.697Z,78.19
2022-10-22T01:43:47.082Z,78.33
2022-10-22T01:45:58.859Z,78.12
2022-10-22T01:48:28.971Z,78.09
2022-10-22T01:51:04.611Z,77.91
2022-10-22T01:53:32.971Z,77.74
2022-10-22T01:55:54.685Z,77.90
2022-10-22T01:58:03.775Z,78.01
2022-10-22T02:00:14.880Z,77.91
2022-10-22T02:02:24.755Z,77.99
2022-10-22T02:04:39.736Z,77.87
2022-10-22T02:06:48.400Z,78.22
2022-10-22T02:08:56.042Z,77.91
2022-10-22T02:11:03.328Z,78.15
2022-10-22T02:13:17.658Z,78.31
2022-10-22T02:15:27.366Z,78.30
2022-10-22T02:17:36.487Z,77.98
2022-10-22T02:19:57.461Z,78.06
2022-10-22T02:22:03.596Z,78.03
2022-10-22T02:24:10.208Z,78.10
2022-10-22T02:26:25.247Z,78.22
2022-10-22T02:28:38.589Z,78.21
2022-10-22T02:30:47.987Z,77.99
2022-10-22T02:33:17.180Z,78.13
2022-10-22T02:35:27.337Z,78.25
2022-10-22T02:37:35.128Z,78.32
2022-10-22T02:39:42.638Z,78.53
2022-10-22T02:41:49.520Z,78.13
2022-10-22T02:43:57.154Z,78.42
2022-10-22T02:46:03.878Z,78.31
2022-10-22T02:48:10.504Z,78.31
2022-10-22T02:50:17.045Z,78.44
2022-10-22T02:52:23.258Z,78.40
2022-10-22T02:54:30.203Z,78.43
2022-10-22T02:56:36.758Z,78.26
2022-10-22T02:58:42.885Z,78.23
2022-10-22T03:00:50.215Z,78.50
2022-10-22T03:02:56.896Z,78.54
2022-10-22T03:05:03.979Z,78.81
2022-10-22T03:07:10.029Z,78.58
2022-10-22T03:09:17.490Z,78.62
2022-10-22T03:11:26.142Z,78.68
2022-10-22T03:13:32.110Z,78.78
2022-10-22T03:15:38.142Z,78.68
2022-10-22T03:17:44.149Z,78.76
2022-10-22T03:19:50.883Z,78.70
2022-10-22T03:22:07.372Z,78.64
2022-10-22T03:24:30.694Z,78.54
2022-10-22T03:26:38.409Z,78.68
2022-10-22T03:28:45.203Z,78.81
2022-10-22T03:30:51.844Z,78.81
2022-10-22T03:32:58.752Z,78.87
2022-10-22T03:35:06.641Z,79.12
2022-10-22T03:37:13.020Z,79.06
2022-10-22T03:39:21.419Z,79.16
2022-10-22T03:41:27.718Z,78.98
2022-10-22T03:43:36.946Z,79.12
2022-10-22T03:45:43.558Z,79.32
2022-10-22T03:47:50.130Z,79.15
2022-10-22T03:49:56.082Z,79.38
2022-10-22T03:52:15.051Z,79.32
2022-10-22T03:54:21.551Z,79.37
2022-10-22T03:56:28.169Z,79.55
2022-10-22T03:58:34.867Z,79.52
2022-10-22T04:00:40.842Z,79.57
2022-10-22T04:02:46.975Z,79.62
2022-10-22T04:04:53.855Z,79.68
2022-10-22T04:06:59.871Z,79.80
2022-10-22T04:09:09.577Z,79.97
2022-10-22T04:11:17.941Z,79.83
2022-10-22T04:13:24.690Z,79.92
2022-10-22T04:15:30.811Z,80.08
2022-10-22T04:17:39.834Z,80.02
2022-10-22T04:19:46.071Z,80.13
2022-10-22T04:21:52.258Z,80.14
2022-10-22T04:23:58.365Z,80.10
2022-10-22T04:26:07.738Z,80.40
2022-10-22T04:28:13.795Z,79.93
2022-10-22T04:30:19.973Z,79.84
2022-10-22T04:32:26.851Z,79.44
2022-10-22T04:34:33.627Z,78.77
2022-10-22T04:36:40.675Z,78.54
2022-10-22T04:38:48.949Z,78.47
2022-10-22T04:40:55.770Z,78.50
2022-10-22T04:43:02.125Z,78.41
2022-10-22T04:45:08.663Z,78.39
2022-10-22T04:47:15.505Z,78.55
2022-10-22T04:49:21.708Z,78.49
2022-10-22T04:51:28.739Z,78.49
2022-10-22T04:53:36.742Z,78.44
2022-10-22T04:55:43.166Z,78.67
2022-10-22T04:57:49.728Z,78.40
2022-10-22T04:59:56.050Z,78.53
2022-10-22T05:02:02.227Z,78.95
2022-10-22T05:04:10.183Z,78.91
2022-10-22T05:06:16.867Z,78.76
2022-10-22T05:08:23.513Z,78.75
2022-10-22T05:10:30.073Z,78.73
2022-10-22T05:12:37.180Z,78.95
2022-10-22T05:14:44.861Z,78.66
2022-10-22T05:16:52.454Z,78.73
2022-10-22T05:19:01.093Z,78.45
2022-10-22T05:21:12.274Z,78.43
2022-10-22T05:23:19.270Z,78.47
2022-10-22T05:25:25.402Z,78.44
2022-10-22T05:27:31.811Z,78.40
2022-10-22T05:29:38.558Z,78.44
2022-10-22T05:31:44.514Z,78.53
2022-10-22T05:33:51.027Z,78.29
2022-10-22T05:35:57.675Z,78.50
2022-10-22T05:38:03.651Z,78.58
2022-10-22T05:40:26.718Z,78.52
2022-10-22T05:42:36.419Z,78.31
2022-10-22T05:44:42.545Z,78.24
2022-10-22T05:46:48.661Z,78.30
2022-10-22T05:49:00.128Z,78.58
2022-10-22T05:51:09.321Z,78.28
2022-10-22T05:53:15.699Z,78.50
2022-10-22T05:55:22.406Z,78.32
2022-10-22T05:57:29.220Z,78.45
2022-10-22T05:59:35.217Z,78.24
2022-10-22T06:01:42.298Z,78.23
2022-10-22T06:03:49.970Z,78.44
2022-10-22T06:05:56.637Z,78.29
2022-10-22T06:08:03.467Z,78.38
2022-10-22T06:10:19.155Z,78.42
2022-10-22T06:12:26.551Z,78.24
2022-10-22T06:14:33.733Z,78.67
2022-10-22T06:16:40.729Z,78.63
2022-10-22T06:18:47.234Z,78.56
2022-10-22T06:20:53.572Z,78.39
2022-10-22T06:23:00.099Z,78.42
2022-10-22T06:25:07.397Z,78.52
2022-10-22T06:27:13.378Z,78.61
2022-10-22T06:29:19.988Z,78.57
2022-10-22T06:31:27.469Z,78.51
2022-10-22T06:33:35.320Z,78.50
2022-10-22T06:35:41.280Z,78.71
2022-10-22T06:37:48.550Z,78.51
2022-10-22T06:39:55.105Z,78.48
2022-10-22T06:42:01.213Z,78.42
2022-10-22T06:44:18.985Z,78.64
2022-10-22T06:46:25.823Z,78.41
2022-10-22T06:48:32.584Z,78.50
2022-10-22T06:50:39.189Z,78.30
2022-10-22T06:52:45.402Z,78.51
2022-10-22T06:54:51.506Z,78.27
2022-10-22T06:56:57.609Z,78.25
2022-10-22T06:59:04.009Z,78.38
2022-10-22T07:01:16.038Z,78.71
2022-10-22T07:03:22.382Z,78.32
2022-10-22T07:05:29.119Z,78.44
2022-10-22T07:07:35.801Z,78.03
2022-10-22T07:09:42.584Z,78.51
2022-10-22T07:11:48.971Z,78.09
2022-10-22T07:14:00.068Z,78.09
2022-10-22T07:16:08.489Z,78.27
2022-10-22T07:18:15.221Z,78.48
2022-10-22T07:20:22.746Z,78.39
2022-10-22T07:22:29.097Z,78.61
2022-10-22T07:24:35.464Z,78.46
2022-10-22T07:26:42.087Z,78.45
2022-10-22T07:28:49.149Z,78.32
2022-10-22T07:30:55.664Z,78.26
2022-10-22T07:33:02.195Z,78.20
2022-10-22T07:35:08.554Z,78.28
2022-10-22T07:37:14.661Z,78.15
2022-10-22T07:39:20.664Z,78.16
2022-10-22T07:41:28.790Z,78.04
2022-10-22T07:43:35.249Z,78.16
2022-10-22T07:45:42.279Z,77.97
2022-10-22T07:47:49.946Z,77.73
2022-10-22T07:49:56.475Z,77.75
2022-10-22T07:52:02.598Z,78.09
2022-10-22T07:54:09.174Z,77.75
2022-10-22T07:56:15.680Z,77.75
2022-10-22T07:58:23.392Z,77.59
2022-10-22T08:00:30.120Z,77.70
2022-10-22T08:02:36.493Z,77.58
2022-10-22T08:04:42.851Z,77.77
2022-10-22T08:06:48.985Z,77.86
2022-10-22T08:08:55.586Z,77.54
2022-10-22T08:11:03.549Z,77.70
2022-10-22T08:13:10.258Z,77.84
2022-10-22T08:15:16.876Z,77.81
2022-10-22T08:17:23.612Z,77.85
2022-10-22T08:19:30.872Z,77.88
2022-10-22T08:21:37.350Z,77.70
2022-10-22T08:23:44.322Z,77.94
2022-10-22T08:25:50.672Z,77.71
2022-10-22T08:27:56.968Z,78.05
2022-10-22T08:30:03.872Z,77.83
2022-10-22T08:32:10.105Z,77.95
2022-10-22T08:34:16.546Z,78.33
2022-10-22T08:36:23.376Z,78.30
2022-10-22T08:38:29.605Z,78.23
2022-10-22T08:40:40.261Z,78.27
2022-10-22T08:43:07.155Z,78.38
2022-10-22T08:45:32.132Z,78.27
2022-10-22T08:48:00.352Z,78.33
2022-10-22T08:50:10.829Z,78.66
2022-10-22T08:52:20.307Z,78.88
2022-10-22T08:54:45.876Z,78.71
2022-10-22T08:57:10.608Z,78.54
2022-10-22T08:59:25.036Z,78.86
2022-10-22T09:01:35.690Z,78.51
2022-10-22T09:04:17.094Z,78.89
2022-10-22T09:06:29.205Z,78.85
2022-10-22T09:08:36.764Z,78.72
2022-10-22T09:10:50.204Z,78.86
2022-10-22T09:12:56.937Z,78.57
2022-10-22T09:15:03.247Z,78.79
2022-10-22T09:17:18.417Z,78.84
2022-10-22T09:19:32.842Z,78.72
2022-10-22T09:21:54.800Z,78.74
2022-10-22T09:24:18.049Z,78.97
2022-10-22T09:26:24.534Z,78.87
2022-10-22T09:28:30.854Z,78.67
2022-10-22T09:30:39.182Z,78.94
2022-10-22T09:32:45.824Z,78.84
2022-10-22T09:34:56.737Z,78.69
2022-10-22T09:37:11.051Z,79.25
2022-10-22T09:39:33.579Z,79.05
2022-10-22T09:41:39.635Z,79.19
2022-10-22T09:43:49.185Z,79.45
2022-10-22T09:46:00.772Z,79.15
2022-10-22T09:48:19.061Z,79.17
2022-10-22T09:50:29.963Z,79.12
2022-10-22T09:52:36.963Z,79.33
2022-10-22T09:54:44.842Z,79.35
2022-10-22T09:56:56.673Z,79.23
2022-10-22T09:59:02.922Z,79.29
2022-10-22T10:01:08.911Z,79.46
2022-10-22T10:03:22.400Z,79.28
2022-10-22T10:05:35.265Z,79.56
2022-10-22T10:07:41.504Z,79.00
2022-10-22T10:09:48.272Z,79.20
2022-10-22T10:12:09.736Z,79.04
2022-10-22T10:14:19.301Z,78.83
2022-10-22T10:16:31.721Z,79.00
2022-10-22T10:18:55.820Z,78.73
2022-10-22T10:21:30.603Z,78.66
2022-10-22T10:24:21.905Z,78.77
2022-10-22T10:27:05.792Z,78.67
2022-10-22T10:29:22.818Z,78.81
2022-10-22T10:31:47.959Z,79.07
2022-10-22T10:34:35.636Z,78.95
2022-10-22T10:37:17.406Z,78.82
2022-10-22T10:39:34.728Z,78.85
2022-10-22T10:42:06.196Z,78.85
2022-10-22T10:44:21.234Z,78.87
2022-10-22T10:46:42.460Z,78.68
2022-10-22T10:48:59.241Z,78.87
2022-10-22T10:51:28.078Z,79.07
2022-10-22T10:54:06.234Z,78.94
2022-10-22T10:56:35.582Z,78.73
2022-10-22T10:59:01.948Z,78.90
2022-10-22T11:01:42.092Z,79.21
2022-10-22T11:04:03.341Z,79.35
2022-10-22T11:06:18.562Z,79.35
2022-10-22T11:08:59.415Z,79.19
2022-10-22T11:11:18.623Z,79.30
2022-10-22T11:13:43.772Z,79.02
2022-10-22T11:16:01.551Z,79.03
2022-10-22T11:18:15.557Z,78.78
2022-10-22T11:20:39.119Z,79.05
2022-10-22T11:23:17.343Z,79.06
2022-10-22T11:25:26.921Z,79.39
2022-10-22T11:28:06.603Z,79.17
2022-10-22T11:30:22.592Z,79.10
2022-10-22T11:32:29.690Z,79.25
2022-10-22T11:34:40.080Z,79.17
2022-10-22T11:36:48.711Z,79.25
2022-10-22T11:38:55.508Z,79.21
2022-10-22T11:41:25.106Z,79.20
2022-10-22T11:43:36.793Z,79.44
2022-10-22T11:45:44.726Z,79.32
2022-10-22T11:48:12.940Z,79.41
2022-10-22T11:50:22.652Z,79.53
2022-10-22T11:52:35.170Z,79.48
2022-10-22T11:54:45.224Z,79.41
2022-10-22T11:56:59.455Z,79.48
2022-10-22T11:59:09.916Z,79.41
2022-10-22T12:01:16.864Z,79.56
2022-10-22T12:03:41.240Z,79.75
2022-10-22T12:05:47.997Z,79.51
2022-10-22T12:08:25.213Z,79.34
2022-10-22T12:10:52.356Z,79.42
2022-10-22T12:13:35.463Z,79.43
2022-10-22T12:15:55.445Z,79.57
2022-10-22T12:18:03.519Z,79.63
2022-10-22T12:20:14.344Z,79.41
2022-10-22T12:22:33.164Z,79.32
2022-10-22T12:24:45.715Z,79.14
2022-10-22T12:26:53.379Z,79.21
2022-10-22T12:29:04.002Z,79.23
2022-10-22T12:31:17.767Z,79.11
2022-10-22T12:33:26.835Z,79.12
2022-10-22T12:35:45.005Z,79.20
2022-10-22T12:37:52.994Z,79.19
2022-10-22T12:39:59.724Z,79.19
2022-10-22T12:42:07.415Z,79.40
2022-10-22T12:44:16.474Z,79.30
2022-10-22T12:46:22.584Z,79.24
2022-10-22T12:48:40.291Z,79.29
2022-10-22T12:50:53.309Z,79.11
2022-10-22T12:53:00.258Z,78.84
2022-10-22T12:55:09.350Z,78.99
2022-10-22T12:57:19.492Z,78.97
2022-10-22T12:59:32.175Z,79.03
2022-10-22T13:01:43.824Z,79.38
2022-10-22T13:04:04.695Z,79.07
2022-10-22T13:06:15.067Z,79.06
2022-10-22T13:10:39.305Z,79.02
2022-10-22T13:12:50.577Z,79.06
2022-10-22T13:14:56.923Z,79.16
2022-10-22T13:17:14.534Z,79.19
2022-10-22T13:19:54.817Z,79.15
2022-10-22T13:22:01.558Z,79.19
2022-10-22T13:24:25.999Z,78.95
2022-10-22T13:26:38.658Z,79.12
2022-10-22T13:28:53.621Z,79.49
2022-10-22T13:31:02.363Z,79.15
2022-10-22T13:33:22.338Z,78.98
2022-10-22T13:35:35.233Z,79.05
2022-10-22T13:37:41.642Z,79.22
2022-10-22T13:39:48.298Z,79.24
2022-10-22T13:41:54.421Z,79.33
2022-10-22T13:44:01.206Z,79.16
2022-10-22T13:46:10.433Z,79.10
2022-10-22T13:48:23.040Z,79.22
2022-10-22T13:50:29.368Z,79.30
2022-10-22T13:52:40.191Z,79.20
2022-10-22T13:54:46.660Z,79.26
2022-10-22T13:56:53.746Z,79.07
2022-10-22T13:58:59.861Z,79.31
2022-10-22T14:01:09.856Z,79.16
2022-10-22T14:03:23.300Z,79.46
2022-10-22T14:05:31.568Z,78.96
2022-10-22T14:07:39.148Z,79.04
2022-10-22T14:09:46.027Z,79.25
2022-10-22T14:11:52.499Z,79.36
2022-10-22T14:13:59.090Z,79.27
2022-10-22T14:16:08.128Z,79.58
2022-10-22T14:18:26.018Z,79.25
2022-10-22T14:20:35.012Z,79.48
2022-10-22T14:22:41.289Z,79.23
2022-10-22T14:24:47.963Z,78.99
2022-10-22T14:26:54.012Z,79.48
2022-10-22T14:29:11.395Z,79.25
2022-10-22T14:31:18.748Z,79.38
2022-10-22T14:33:32.713Z,79.33
2022-10-22T14:35:38.727Z,79.37
2022-10-22T14:37:45.022Z,79.18
2022-10-22T14:39:53.669Z,79.03
2022-10-22T14:41:59.645Z,78.92
2022-10-22T14:44:06.452Z,79.12
2022-10-22T14:46:16.228Z,79.07
2022-10-22T14:48:22.716Z,79.19
2022-10-22T14:50:29.528Z,78.97
2022-10-22T14:52:37.853Z,79.01
2022-10-22T14:54:44.280Z,79.23
2022-10-22T14:56:50.410Z,79.28
2022-10-22T14:58:56.601Z,79.15
2022-10-22T15:01:06.803Z,79.32
2022-10-22T15:03:13.637Z,79.63
2022-10-22T15:05:20.610Z,79.19
2022-10-22T15:07:28.468Z,79.13
2022-10-22T15:09:35.097Z,79.37
2022-10-22T15:11:41.050Z,79.07
2022-10-22T15:13:46.995Z,79.35
2022-10-22T15:15:53.040Z,79.55
2022-10-22T15:17:59.718Z,79.30
2022-10-22T15:20:07.227Z,79.76
2022-10-22T15:22:14.863Z,79.94
2022-10-22T15:24:20.977Z,79.96
2022-10-22T15:26:28.944Z,79.69
2022-10-22T15:28:35.678Z,79.61
2022-10-22T15:30:42.268Z,79.91
2022-10-22T15:32:48.881Z,79.84
2022-10-22T15:34:55.734Z,79.45
2022-10-22T15:37:05.512Z,79.66
2022-10-22T15:39:12.125Z,79.63
2022-10-22T15:41:18.938Z,79.49
2022-10-22T15:43:25.748Z,79.51
2022-10-22T15:45:33.307Z,79.74
2022-10-22T15:47:40.621Z,79.65
2022-10-22T15:49:47.406Z,79.72
2022-10-22T15:51:53.992Z,79.60
2022-10-22T15:54:01.427Z,79.62
2022-10-22T15:56:08.757Z,79.84
2022-10-22T15:58:15.087Z,79.87
2022-10-22T16:00:21.656Z,79.79
2022-10-22T16:02:28.210Z,79.82
2022-10-22T16:04:34.526Z,79.70
2022-10-22T16:06:46.888Z,79.95
2022-10-22T16:08:54.649Z,79.97
2022-10-22T16:11:01.661Z,79.69
2022-10-22T16:13:08.356Z,79.45
2022-10-22T16:15:14.930Z,79.68
2022-10-22T16:17:21.380Z,79.60
2022-10-22T16:19:27.835Z,79.82
2022-10-22T16:21:34.554Z,79.74
2022-10-22T16:23:41.042Z,79.68
2022-10-22T16:25:47.865Z,79.71
2022-10-22T16:27:54.319Z,79.48
2022-10-22T16:30:00.667Z,79.70
2022-10-22T16:32:07.421Z,79.76
2022-10-22T16:34:14.254Z,79.85
2022-10-22T16:36:22.020Z,79.67
2022-10-22T16:38:28.762Z,79.86
2022-10-22T16:40:35.909Z,79.92
2022-10-22T16:42:43.090Z,80.12
2022-10-22T16:44:49.736Z,80.00
2022-10-22T16:46:55.968Z,80.18
2022-10-22T16:49:02.512Z,80.21
2022-10-22T16:51:10.386Z,79.89
2022-10-22T16:53:16.942Z,80.06
2022-10-22T16:55:23.483Z,80.11
2022-10-22T16:57:30.140Z,79.65
2022-10-22T16:59:36.547Z,79.62
2022-10-22T17:01:43.276Z,79.35
2022-10-22T17:03:50.081Z,79.35
2022-10-22T17:06:00.347Z,79.12
2022-10-22T17:08:07.198Z,79.16
2022-10-22T17:10:13.551Z,78.72
2022-10-22T17:12:20.204Z,78.54
2022-10-22T17:14:27.064Z,78.72
2022-10-22T17:16:33.614Z,78.53
2022-10-22T17:18:42.481Z,78.48
2022-10-22T17:20:48.935Z,78.69
2022-10-22T17:22:55.466Z,78.66
2022-10-22T17:25:15.158Z,78.40
2022-10-22T17:27:21.145Z,78.57
2022-10-22T17:29:27.210Z,78.76
2022-10-22T17:31:41.262Z,78.51
2022-10-22T17:33:48.480Z,78.59
2022-10-22T17:35:54.982Z,78.54
2022-10-22T17:38:01.573Z,78.09
2022-10-22T17:40:08.364Z,78.23
2022-10-22T17:42:14.459Z,78.00
2022-10-22T17:44:21.189Z,77.88
2022-10-22T17:46:30.624Z,77.84
2022-10-22T17:48:37.319Z,77.98
2022-10-22T17:50:48.216Z,77.85
2022-10-22T17:52:57.562Z,77.87
2022-10-22T17:55:04.504Z,77.98
2022-10-22T17:57:11.884Z,78.01
2022-10-22T17:59:18.329Z,77.84
2022-10-22T18:01:30.019Z,77.88
2022-10-22T18:03:36.602Z,77.68
2022-10-22T18:05:43.062Z,77.78
2022-10-22T18:07:49.632Z,77.76
2022-10-22T18:09:55.934Z,78.01
2022-10-22T18:12:02.933Z,77.85
2022-10-22T18:14:09.684Z,78.11
2022-10-22T18:16:17.129Z,78.07
2022-10-22T18:18:25.304Z,77.63
2022-10-22T18:20:31.569Z,77.75
2022-10-22T18:22:38.463Z,77.92
2022-10-22T18:24:44.363Z,77.78
2022-10-22T18:26:50.436Z,77.78
2022-10-22T18:28:58.102Z,77.96
2022-10-22T18:31:08.619Z,78.01
2022-10-22T18:33:17.343Z,78.32
2022-10-22T18:35:23.279Z,78.78
2022-10-22T18:37:29.642Z,78.63
2022-10-22T18:39:36.633Z,78.13
2022-10-22T18:41:43.371Z,77.30
2022-10-22T18:44:04.770Z,76.37
2022-10-22T18:46:11.287Z,76.36
2022-10-22T18:48:20.489Z,76.03
2022-10-22T18:50:26.893Z,75.09
2022-10-22T18:52:33.317Z,74.15
2022-10-22T18:54:39.967Z,73.35
2022-10-22T18:56:46.225Z,72.66
2022-10-22T18:58:52.955Z,72.11
2022-10-22T19:00:59.357Z,71.72
2022-10-22T19:03:06.671Z,71.39
2022-10-22T19:05:14.062Z,71.69
2022-10-22T19:07:20.505Z,71.79
2022-10-22T19:09:27.747Z,71.73
2022-10-22T19:11:34.429Z,71.80
2022-10-22T19:13:42.426Z,71.65
2022-10-22T19:15:48.709Z,71.36
2022-10-22T19:17:55.253Z,71.24
2022-10-22T19:20:01.670Z,70.53
2022-10-22T19:22:08.193Z,70.63
2022-10-22T19:24:16.459Z,70.24
2022-10-22T19:26:25.073Z,69.90
2022-10-22T19:28:31.467Z,69.98
2022-10-22T19:30:41.728Z,70.04
2022-10-22T19:32:49.931Z,70.06
2022-10-22T19:34:56.312Z,69.95
2022-10-22T19:37:02.456Z,69.72
2022-10-22T19:39:10.040Z,69.97
2022-10-22T19:41:19.982Z,69.61
2022-10-22T19:43:27.458Z,69.32
2022-10-22T19:45:33.912Z,69.30
2022-10-22T19:47:40.784Z,69.15
2022-10-22T19:49:47.399Z,69.19
2022-10-22T19:51:54.548Z,69.19
2022-10-22T19:54:03.480Z,69.32
2022-10-22T19:56:12.153Z,69.53
2022-10-22T19:58:18.686Z,69.44
2022-10-22T20:00:25.425Z,69.45
2022-10-22T20:02:31.487Z,69.17
2022-10-22T20:04:38.271Z,69.24
2022-10-22T20:06:44.839Z,68.94
2022-10-22T20:08:55.170Z,68.96
2022-10-22T20:11:02.928Z,69.10
2022-10-22T20:13:09.115Z,69.05
2022-10-22T20:15:15.902Z,68.93
2022-10-22T20:17:22.432Z,68.98
2022-10-22T20:19:30.341Z,69.14
2022-10-22T20:21:37.042Z,68.94
2022-10-22T20:23:44.604Z,69.23
2022-10-22T20:25:50.796Z,69.44
2022-10-22T20:27:57.334Z,69.23
2022-10-22T20:30:04.362Z,69.36
2022-10-22T20:32:10.574Z,69.45
2022-10-22T20:34:16.811Z,69.34
2022-10-22T20:36:24.566Z,69.05
2022-10-22T20:38:30.878Z,69.11
2022-10-22T20:40:38.354Z,69.19
2022-10-22T20:42:45.094Z,69.20
2022-10-22T20:44:51.387Z,69.28
2022-10-22T20:49:34.461Z,68.97
2022-10-22T20:51:41.483Z,69.21
2022-10-22T20:53:48.390Z,69.41
2022-10-22T20:55:59.401Z,69.62
2022-10-22T20:58:05.552Z,69.85
2022-10-22T21:00:12.345Z,70.24
2022-10-22T21:02:18.666Z,70.36
2022-10-22T21:04:25.105Z,70.38
2022-10-22T21:06:31.600Z,70.45
2022-10-22T21:08:37.885Z,69.99
2022-10-22T21:10:49.834Z,70.16
2022-10-22T21:12:56.583Z,70.21
2022-10-22T21:15:02.590Z,70.54
2022-10-22T21:17:09.578Z,70.91
2022-10-22T21:19:15.590Z,70.56
2022-10-22T21:21:22.000Z,70.15
2022-10-22T21:23:28.082Z,69.98
2022-10-22T21:25:34.807Z,69.52
2022-10-22T21:27:41.458Z,68.86
2022-10-22T21:29:47.404Z,68.68
2022-10-22T21:31:54.803Z,68.97
2022-10-22T21:34:00.792Z,69.37
2022-10-22T21:36:07.862Z,68.80
2022-10-22T21:38:13.856Z,68.35
2022-10-22T21:40:19.791Z,68.20
2022-10-22T21:42:26.261Z,68.67
2022-10-22T21:44:32.480Z,68.45
2022-10-22T21:46:39.063Z,67.77
2022-10-22T21:48:46.075Z,67.13
2022-10-22T21:50:52.504Z,67.21
2022-10-22T21:52:59.283Z,66.94
2022-10-22T21:55:05.783Z,66.95
2022-10-22T21:57:12.565Z,66.43
2022-10-22T21:59:18.998Z,66.42
2022-10-22T22:01:25.749Z,66.45
2022-10-22T22:03:32.053Z,66.42
2022-10-22T22:05:39.127Z,66.32
2022-10-22T22:07:45.656Z,65.32
2022-10-22T22:09:52.949Z,64.63
2022-10-22T22:11:59.324Z,64.24
2022-10-22T22:14:06.243Z,64.16
2022-10-22T22:16:16.009Z,64.06
2022-10-22T22:18:22.353Z,63.95
2022-10-22T22:20:29.229Z,63.92
2022-10-22T22:22:35.819Z,64.07
2022-10-22T22:24:42.166Z,63.76
2022-10-22T22:26:50.016Z,63.17
2022-10-22T22:28:57.662Z,62.87
2022-10-22T22:31:14.535Z,62.24
2022-10-22T22:33:20.837Z,61.53
2022-10-22T22:35:27.889Z,61.23
2022-10-22T22:37:34.347Z,61.17
2022-10-22T22:39:41.055Z,60.93
2022-10-22T22:41:47.865Z,60.62
2022-10-22T22:46:08.241Z,58.51
2022-10-22T22:48:14.477Z,58.32
2022-10-22T22:50:20.740Z,58.44
2022-10-22T22:52:26.855Z,58.57
2022-10-22T22:54:32.967Z,58.52
2022-10-22T22:56:39.378Z,57.97
2022-10-22T22:58:45.841Z,57.90
2022-10-22T23:00:52.486Z,57.19
2022-10-22T23:02:58.501Z,57.04
2022-10-22T23:05:04.591Z,56.65
2022-10-22T23:07:10.730Z,56.53
2022-10-22T23:11:25.667Z,56.13
2022-10-22T23:13:32.185Z,56.12
2022-10-22T23:15:41.501Z,56.15
2022-10-22T23:17:47.870Z,56.05
2022-10-22T23:19:54.871Z,55.88
2022-10-22T23:22:02.046Z,56.17
2022-10-22T23:24:11.523Z,56.30
2022-10-22T23:26:21.569Z,56.29
2022-10-22T23:28:28.433Z,55.97
2022-10-22T23:30:35.177Z,55.71
2022-10-22T23:32:42.337Z,55.19
2022-10-22T23:34:48.387Z,54.98
2022-10-22T23:36:55.766Z,54.91
2022-10-22T23:39:04.002Z,55.09
2022-10-22T23:41:11.020Z,55.17
2022-10-22T23:43:17.046Z,54.86
2022-10-22T23:45:23.405Z,54.91
2022-10-22T23:47:29.315Z,54.79
2022-10-22T23:49:36.417Z,54.55
2022-10-22T23:51:43.270Z,54.36
2022-10-22T23:53:55.389Z,54.40
2022-10-22T23:56:06.752Z,54.32
2022-10-22T23:58:13.333Z,54.25
